Time;durP1;ratioP1;P1;durP2;ratioP2;P2;SDS_P1;SDS_P2;PMS_P1;PMS_P2;Temp;Humidity;BMP_temperature;BMP_pressure;BME280_temperature;BME280_humidity;BME280_pressure;Samples;Min_cycle;Max_cycle;Signal;HPM_P1;HPM_P2
2021/03/12 04:15:51;;;;;;;17.60;10.70;;;-2.30;99.90;;;;;;5071021;28;20056;-68
2021/03/12 04:18:18;;;;;;;20.52;11.68;;;-2.40;99.90;;;;;;5071707;28;20036;-68
2021/03/12 04:20:44;;;;;;;20.90;11.10;;;-2.30;99.90;;;;;;5071530;28;20024;-68
2021/03/12 04:23:10;;;;;;;18.67;11.38;;;-2.40;99.90;;;;;;5071788;28;20082;-68
2021/03/12 04:25:36;;;;;;;22.55;11.63;;;-2.40;99.90;;;;;;5071488;28;20052;-68
2021/03/12 04:28:03;;;;;;;17.20;9.45;;;-2.40;99.90;;;;;;5071592;28;20052;-68
2021/03/12 04:30:30;;;;;;;17.35;9.75;;;-2.40;99.90;;;;;;5071377;28;20020;-68
2021/03/12 04:32:56;;;;;;;23.00;10.57;;;-2.40;99.90;;;;;;5071655;28;20392;-68
2021/03/12 04:35:22;;;;;;;15.15;10.25;;;-2.40;99.90;;;;;;5071384;28;20032;-68
2021/03/12 04:37:48;;;;;;;16.33;11.10;;;-2.40;99.90;;;;;;5071469;28;20032;-67
2021/03/12 04:40:15;;;;;;;18.42;10.25;;;-2.40;99.90;;;;;;5071518;28;20025;-68
2021/03/12 04:42:44;;;;;;;18.17;10.80;;;-2.40;99.90;;;;;;5071406;28;20082;-68
2021/03/12 04:45:11;;;;;;;17.92;9.60;;;-2.40;99.90;;;;;;5071495;28;20032;-68
2021/03/12 04:47:37;;;;;;;17.67;10.38;;;-2.40;99.90;;;;;;5071293;28;20491;-68
2021/03/12 04:50:06;;;;;;;15.68;8.98;;;-2.40;99.90;;;;;;5071209;28;20107;-68
2021/03/12 04:52:32;;;;;;;18.38;10.32;;;-2.30;99.90;;;;;;5071329;28;20025;-68
2021/03/12 04:54:59;;;;;;;16.98;10.48;;;-2.30;99.90;;;;;;5072089;28;20514;-68
2021/03/12 04:57:25;;;;;;;16.15;10.30;;;-2.30;99.90;;;;;;5075013;28;20023;-68
2021/03/12 04:59:53;;;;;;;18.33;9.90;;;-2.30;99.90;;;;;;5074746;28;20021;-68
2021/03/12 05:02:19;;;;;;;20.33;11.50;;;-2.40;99.90;;;;;;5075091;28;20032;-67
2021/03/12 05:04:51;;;;;;;15.38;9.30;;;-2.40;99.90;;;;;;5074960;28;20373;-67
2021/03/12 05:07:19;;;;;;;19.17;10.05;;;-2.40;99.90;;;;;;5074859;28;20165;-66
2021/03/12 05:09:45;;;;;;;15.38;9.30;;;-2.30;99.90;;;;;;5074907;28;20392;-67
2021/03/12 05:12:11;;;;;;;16.70;10.57;;;-2.40;99.90;;;;;;5074738;28;20021;-66
2021/03/12 05:14:37;;;;;;;19.05;11.05;;;-2.40;99.90;;;;;;5074559;28;20131;-66
2021/03/12 05:17:03;;;;;;;16.58;9.57;;;-2.40;99.90;;;;;;5074735;28;20447;-66
2021/03/12 05:19:29;;;;;;;13.65;8.25;;;-2.40;99.90;;;;;;5074669;28;20479;-67
2021/03/12 05:21:55;;;;;;;14.55;8.93;;;-2.30;99.90;;;;;;5056575;28;20111;-67
2021/03/12 05:24:21;;;;;;;20.30;10.63;;;-2.30;99.90;;;;;;5074769;28;20507;-67
2021/03/12 05:26:47;;;;;;;15.15;9.68;;;-2.40;99.90;;;;;;5074764;28;20033;-66
2021/03/12 05:29:13;;;;;;;14.88;8.70;;;-2.40;99.90;;;;;;5074135;28;20063;-67
2021/03/12 05:31:38;;;;;;;15.65;9.63;;;-2.40;99.90;;;;;;5074475;28;20028;-70
2021/03/12 05:34:04;;;;;;;14.32;7.97;;;-2.40;99.90;;;;;;5074411;28;20384;-68
2021/03/12 05:36:30;;;;;;;19.77;10.93;;;-2.40;99.90;;;;;;5074040;28;20100;-70
2021/03/12 05:38:56;;;;;;;15.82;9.52;;;-2.40;99.90;;;;;;5074181;28;20021;-71
2021/03/12 05:41:22;;;;;;;13.57;8.77;;;-2.30;99.90;;;;;;5074256;28;20427;-68
2021/03/12 05:43:48;;;;;;;17.25;9.75;;;-2.10;99.90;;;;;;5074045;28;20044;-71
2021/03/12 05:46:15;;;;;;;17.50;9.70;;;-2.10;99.90;;;;;;5073643;28;20060;-67
2021/03/12 05:48:44;;;;;;;16.73;9.73;;;-2.10;99.90;;;;;;5094283;28;20490;-68
2021/03/12 05:51:11;;;;;;;15.63;9.50;;;-2.20;99.90;;;;;;5091082;28;20020;-70
2021/03/12 05:53:37;;;;;;;14.48;8.90;;;-2.20;99.90;;;;;;5093506;28;20032;-69
2021/03/12 05:56:03;;;;;;;14.77;8.93;;;-2.30;99.90;;;;;;5093467;28;20085;-67
2021/03/12 05:58:29;;;;;;;15.32;10.00;;;-2.30;99.90;;;;;;5093542;28;20114;-68
2021/03/12 06:00:57;;;;;;;13.95;8.90;;;-2.30;99.90;;;;;;5093399;28;20557;-69
2021/03/12 06:03:23;;;;;;;15.13;7.97;;;-2.30;99.90;;;;;;5093519;28;20056;-69
2021/03/12 06:05:49;;;;;;;16.30;8.55;;;-2.30;99.90;;;;;;5092934;28;20055;-69
2021/03/12 06:08:15;;;;;;;17.60;10.60;;;-2.30;99.90;;;;;;5093016;28;20447;-69
2021/03/12 06:10:41;;;;;;;14.50;8.68;;;-2.30;99.90;;;;;;5093381;28;20023;-69
2021/03/12 06:13:06;;;;;;;19.45;10.48;;;-2.30;99.90;;;;;;5092964;28;20032;-69
2021/03/12 06:15:38;;;;;;;15.20;9.88;;;-2.30;99.90;;;;;;5092839;28;20052;-69
2021/03/12 06:18:22;;;;;;;17.48;10.25;;;-2.30;99.90;;;;;;5093101;28;20032;-69
2021/03/12 06:20:48;;;;;;;18.75;10.07;;;-2.30;99.90;;;;;;5072833;28;20056;-68
2021/03/12 06:23:35;;;;;;;14.32;8.80;;;-2.30;99.90;;;;;;5073380;28;20021;-67
2021/03/12 06:26:01;;;;;;;18.80;9.50;;;-2.20;99.90;;;;;;5072813;28;20025;-67
2021/03/12 06:28:27;;;;;;;13.82;9.13;;;-2.30;99.90;;;;;;5073066;28;20040;-71
2021/03/12 06:30:53;;;;;;;14.63;9.15;;;-2.30;99.90;;;;;;5072874;28;20029;-70
2021/03/12 06:33:30;;;;;;;17.88;8.95;;;-2.10;99.90;;;;;;5077618;28;20024;-71
2021/03/12 06:35:57;;;;;;;17.13;9.55;;;-2.10;99.90;;;;;;5093270;28;20055;-71
2021/03/12 06:38:24;;;;;;;15.43;9.60;;;-2.20;99.90;;;;;;5093078;28;20035;-71
2021/03/12 06:40:51;;;;;;;15.00;8.57;;;-2.20;99.90;;;;;;5093143;28;20395;-69
2021/03/12 06:43:26;;;;;;;19.42;9.98;;;-2.30;99.90;;;;;;5093407;28;20383;-70
2021/03/12 06:46:00;;;;;;;17.15;9.70;;;-2.30;99.90;;;;;;5093098;28;20020;-69
2021/03/12 06:48:27;;;;;;;18.27;10.02;;;-2.30;99.90;;;;;;5093420;28;20083;-69
2021/03/12 06:51:10;;;;;;;19.33;10.15;;;-2.30;99.90;;;;;;5093350;28;20012;-69
2021/03/12 06:53:41;;;;;;;18.23;9.18;;;-2.30;99.90;;;;;;5093073;28;20149;-69
2021/03/12 06:56:12;;;;;;;18.52;9.93;;;-2.30;99.90;;;;;;5092952;28;20027;-69
2021/03/12 06:58:38;;;;;;;16.35;10.13;;;-2.20;99.90;;;;;;5092734;28;20028;-72
2021/03/12 07:01:18;;;;;;;21.80;10.00;;;-2.20;99.90;;;;;;5092889;28;20024;-70
2021/03/12 07:03:44;;;;;;;13.73;9.40;;;-2.20;99.90;;;;;;5092922;28;20032;-70
2021/03/12 07:06:16;;;;;;;15.90;9.25;;;-2.20;99.90;;;;;;5092492;28;20024;-68
2021/03/12 07:08:47;;;;;;;18.02;9.05;;;-2.10;99.90;;;;;;5092563;28;20032;-68
2021/03/12 07:11:16;;;;;;;;;;;-1.90;99.90;;;;;;5092805;28;20024;-70
2021/03/12 07:13:42;;;;;;;12.35;7.60;;;-1.70;99.90;;;;;;5108186;28;19904;-71
2021/03/12 07:16:08;;;;;;;16.85;10.05;;;-1.80;99.90;;;;;;5091791;28;20521;-70
2021/03/12 07:18:34;;;;;;;14.52;8.73;;;-2.00;99.90;;;;;;5091679;28;20114;-69
2021/03/12 07:21:02;;;;;;;13.85;9.43;;;-2.10;99.90;;;;;;5091940;28;20048;-69
2021/03/12 07:23:28;;;;;;;18.25;9.15;;;-2.10;99.90;;;;;;5092021;28;20031;-69
2021/03/12 07:25:55;;;;;;;13.82;9.15;;;-2.10;99.90;;;;;;5092227;28;20016;-69
2021/03/12 07:28:23;;;;;;;16.50;10.35;;;-2.20;99.90;;;;;;5091848;28;20383;-72
2021/03/12 07:30:51;;;;;;;15.15;10.60;;;-2.20;99.90;;;;;;5089471;28;20360;-69
2021/03/12 07:33:21;;;;;;;16.25;10.18;;;-2.20;99.90;;;;;;5091621;28;20170;-72
2021/03/12 07:35:48;;;;;;;19.52;10.77;;;-2.20;99.90;;;;;;5092171;28;20051;-71
2021/03/12 07:38:15;;;;;;;18.55;9.77;;;-2.20;99.90;;;;;;5091989;28;20081;-73
2021/03/12 07:40:41;;;;;;;16.90;10.10;;;-2.20;99.90;;;;;;5092109;28;20436;-71
2021/03/12 07:43:09;;;;;;;16.77;10.00;;;-2.20;99.90;;;;;;5092055;28;20028;-74
2021/03/12 07:45:38;;;;;;;15.52;8.40;;;-2.20;99.90;;;;;;5091797;28;20429;-70
2021/03/12 07:48:04;;;;;;;15.25;9.65;;;-2.20;99.90;;;;;;5091480;28;20510;-70
2021/03/12 07:50:37;;;;;;;15.23;9.50;;;-2.20;99.90;;;;;;5091554;28;20024;-71
2021/03/12 07:53:04;;;;;;;17.80;10.52;;;-2.20;99.90;;;;;;5092003;28;20111;-71
2021/03/12 07:55:36;;;;;;;17.77;10.80;;;-2.20;99.90;;;;;;5091716;28;20024;-71
2021/03/12 07:58:09;;;;;;;18.95;10.85;;;-2.10;99.90;;;;;;5091851;28;20032;-70
2021/03/12 08:00:53;;;;;;;17.42;9.57;;;-2.10;99.90;;;;;;5091653;28;20031;-71
2021/03/12 08:03:40;;;;;;;19.50;11.40;;;-2.10;99.90;;;;;;5092196;28;20051;-70
2021/03/12 08:06:17;;;;;;;18.55;10.88;;;-2.00;99.90;;;;;;5091867;28;20026;-71
2021/03/12 08:08:44;;;;;;;18.80;10.20;;;-2.00;99.90;;;;;;5091942;28;20078;-71
2021/03/12 08:11:24;;;;;;;16.35;11.00;;;-1.90;99.90;;;;;;5091725;28;20107;-72
2021/03/12 08:13:53;;;;;;;19.00;10.63;;;-1.90;99.90;;;;;;5091511;28;20415;-72
2021/03/12 08:16:19;;;;;;;14.85;9.50;;;-1.90;99.90;;;;;;5091554;28;20044;-74
2021/03/12 08:18:46;;;;;;;14.45;9.57;;;-1.80;99.90;;;;;;5091521;28;20032;-71
2021/03/12 08:21:29;;;;;;;16.27;9.98;;;-1.80;99.90;;;;;;5091269;28;20159;-72
2021/03/12 08:23:55;;;;;;;18.30;9.73;;;-1.70;99.90;;;;;;5090609;28;20441;-77
2021/03/12 08:26:50;;;;;;;16.30;10.52;;;-1.70;99.90;;;;;;5091086;28;20016;-74
2021/03/12 08:29:38;;;;;;;13.82;9.15;;;-1.70;99.90;;;;;;5090038;28;20036;-75
2021/03/12 08:32:38;;;;;;;15.02;9.38;;;-1.60;99.90;;;;;;5094726;28;20383;-74
2021/03/12 08:35:25;;;;;;;18.45;9.63;;;-1.60;99.90;;;;;;5092571;28;20012;-74
2021/03/12 08:37:51;;;;;;;16.77;9.63;;;-1.60;99.90;;;;;;5094551;28;20020;-75
2021/03/12 08:40:17;;;;;;;15.65;10.30;;;-1.60;99.90;;;;;;5094359;28;20036;-74
2021/03/12 08:43:03;;;;;;;19.23;9.07;;;-1.60;99.90;;;;;;5095056;28;20375;-72
2021/03/12 08:45:32;;;;;;;15.80;9.98;;;-1.50;99.90;;;;;;5095197;28;20112;-77
2021/03/12 08:48:07;;;;;;;14.98;8.93;;;-1.50;99.90;;;;;;5095348;28;20038;-74
2021/03/12 08:50:36;;;;;;;13.32;9.43;;;-1.50;99.90;;;;;;5094372;28;20028;-76
2021/03/12 08:53:05;;;;;;;13.88;9.75;;;-1.50;99.90;;;;;;5094231;28;20660;-71
2021/03/12 08:55:35;;;;;;;17.13;10.88;;;-1.50;99.90;;;;;;5094538;28;20020;-71
2021/03/12 08:58:16;;;;;;;17.45;10.05;;;-1.50;99.90;;;;;;5094692;28;20016;-71
2021/03/12 09:00:43;;;;;;;20.00;11.55;;;-1.50;99.90;;;;;;5092148;28;20050;-71
2021/03/12 09:03:33;;;;;;;21.25;10.27;;;-1.50;99.90;;;;;;5094804;28;20069;-74
2021/03/12 09:06:11;;;;;;;16.05;8.88;;;-1.40;99.90;;;;;;5094242;28;20020;-70
2021/03/12 09:08:40;;;;;;;13.90;9.57;;;-1.50;99.90;;;;;;5094425;28;20035;-74
2021/03/12 09:11:07;;;;;;;16.70;10.45;;;-1.40;99.90;;;;;;5094547;28;20027;-72
2021/03/12 09:13:38;;;;;;;16.67;10.13;;;-1.40;99.90;;;;;;5094876;28;20039;-75
2021/03/12 09:16:06;;;;;;;16.33;9.55;;;-1.30;99.90;;;;;;5093931;28;20384;-73
2021/03/12 09:18:33;;;;;;;16.05;10.05;;;-1.40;99.90;;;;;;5094196;28;20027;-73
2021/03/12 09:21:06;;;;;;;17.30;10.45;;;-1.30;99.90;;;;;;5094218;28;20498;-73
2021/03/12 09:23:41;;;;;;;16.23;10.48;;;-1.30;99.90;;;;;;5091724;28;20112;-73
2021/03/12 09:26:09;;;;;;;17.67;9.82;;;-1.30;99.90;;;;;;5094154;28;20484;-74
2021/03/12 09:28:36;;;;;;;13.48;8.85;;;-1.30;99.90;;;;;;5094868;28;20085;-74
2021/03/12 09:31:03;;;;;;;15.77;10.50;;;-1.30;99.90;;;;;;5094522;28;20017;-72
2021/03/12 09:33:36;;;;;;;18.77;10.07;;;-1.30;99.90;;;;;;5093826;28;20088;-71
2021/03/12 09:36:06;;;;;;;16.00;9.57;;;-1.20;99.90;;;;;;5094119;28;20051;-71
2021/03/12 09:38:38;;;;;;;16.15;10.38;;;-0.90;99.90;;;;;;5094384;28;20387;-72
2021/03/12 09:41:24;;;;;;;14.55;9.38;;;-0.60;99.90;;;;;;5093982;28;20031;-72
2021/03/12 09:44:05;;;;;;;13.20;8.63;;;-0.60;99.90;;;;;;5094393;28;20407;-73
2021/03/12 09:46:51;;;;;;;;;;;-0.50;99.90;;;;;;5094778;28;20073;-72
2021/03/12 09:49:30;;;;;;;18.02;9.00;;;-0.30;99.90;;;;;;5093819;28;19912;-73
2021/03/12 09:51:59;;;;;;;17.45;10.23;;;0.20;99.90;;;;;;5093714;28;20028;-80
2021/03/12 09:54:26;;;;;;;21.27;10.15;;;0.20;99.90;;;;;;5075466;28;20073;-82
2021/03/12 09:56:54;;;;;;;15.55;10.07;;;-0.10;99.90;;;;;;5087437;28;20502;-82
2021/03/12 09:59:25;;;;;;;15.95;9.90;;;-0.40;99.90;;;;;;5093730;28;20024;-77
2021/03/12 10:01:51;;;;;;;17.65;10.35;;;-0.50;99.90;;;;;;5093594;28;20353;-76
2021/03/12 10:04:36;;;;;;;16.65;10.98;;;-0.70;99.90;;;;;;5093211;28;20101;-83
2021/03/12 10:07:15;;;;;;;19.48;9.82;;;-0.80;99.90;;;;;;5073743;28;20032;-75
2021/03/12 10:09:46;;;;;;;16.45;10.05;;;-0.80;99.90;;;;;;5073493;28;20541;-76
2021/03/12 10:12:25;;;;;;;15.20;9.43;;;-0.90;99.90;;;;;;5090334;28;20052;-71
2021/03/12 10:14:53;;;;;;;17.95;10.80;;;-1.00;99.90;;;;;;5072987;28;20127;-72
2021/03/12 10:17:26;;;;;;;18.67;10.77;;;-1.00;99.90;;;;;;5092712;28;20490;-72
2021/03/12 10:19:57;;;;;;;16.38;9.98;;;-1.10;99.90;;;;;;5093123;28;20032;-70
2021/03/12 10:22:34;;;;;;;18.33;11.70;;;-1.10;99.90;;;;;;5097256;28;20027;-71
2021/03/12 10:25:06;;;;;;;19.23;11.93;;;-1.10;99.90;;;;;;5090606;28;20018;-70
2021/03/12 10:27:34;;;;;;;19.00;10.77;;;-1.00;99.90;;;;;;5089646;28;20136;-70
2021/03/12 10:30:07;;;;;;;15.18;9.80;;;-1.00;99.90;;;;;;5093184;28;20050;-70
2021/03/12 10:32:37;;;;;;;17.75;11.50;;;-1.00;99.90;;;;;;5093372;28;20030;-69
2021/03/12 10:35:03;;;;;;;19.52;12.02;;;-1.00;99.90;;;;;;5093631;28;20107;-70
2021/03/12 10:37:33;;;;;;;17.23;11.15;;;-0.90;99.90;;;;;;5074839;28;20024;-70
2021/03/12 10:39:59;;;;;;;17.33;11.40;;;-1.00;99.90;;;;;;5093227;28;20115;-70
2021/03/12 10:42:30;;;;;;;17.40;10.40;;;-0.90;99.90;;;;;;5093002;28;20043;-70
2021/03/12 10:45:03;;;;;;;16.92;9.73;;;-0.90;99.90;;;;;;5093156;28;20031;-70
2021/03/12 10:47:29;;;;;;;17.02;9.95;;;-0.90;99.90;;;;;;5092813;28;20150;-70
2021/03/12 10:49:55;;;;;;;18.70;11.05;;;-0.80;99.90;;;;;;5093141;28;20032;-69
2021/03/12 10:52:29;;;;;;;18.20;10.73;;;-0.80;99.90;;;;;;5092253;28;20103;-70
2021/03/12 10:54:57;;;;;;;15.45;9.15;;;-0.80;99.90;;;;;;5074838;28;20115;-71
2021/03/12 10:57:48;;;;;;;18.67;10.85;;;-0.80;99.90;;;;;;5092820;28;20020;-69
2021/03/12 11:00:18;;;;;;;;;;;-0.90;99.90;;;;;;5093400;28;20031;-69
2021/03/12 11:02:44;;;;;;;21.02;10.73;;;-0.90;99.90;;;;;;5092743;28;19956;-68
2021/03/12 11:05:12;;;;;;;18.58;10.55;;;-0.90;99.90;;;;;;5092843;28;20071;-69
2021/03/12 11:07:39;;;;;;;15.32;9.88;;;-0.90;99.90;;;;;;5092424;28;20028;-70
2021/03/12 11:10:05;;;;;;;19.65;9.82;;;-0.90;99.90;;;;;;5092544;28;20043;-69
2021/03/12 11:12:45;;;;;;;17.52;10.30;;;-0.90;99.90;;;;;;5092419;28;20035;-69
2021/03/12 11:15:13;;;;;;;15.40;9.75;;;-0.90;99.90;;;;;;5092550;28;20067;-69
2021/03/12 11:17:44;;;;;;;16.05;10.18;;;-0.90;99.90;;;;;;5092603;28;20028;-69
2021/03/12 11:20:11;;;;;;;15.88;10.10;;;-0.80;99.90;;;;;;5092744;28;20473;-69
2021/03/12 11:22:37;;;;;;;16.80;9.98;;;-0.80;99.90;;;;;;5092373;28;20020;-69
2021/03/12 11:25:04;;;;;;;13.85;9.05;;;-0.80;99.90;;;;;;5092487;28;20024;-69
2021/03/12 11:27:33;;;;;;;17.33;9.45;;;-0.80;99.90;;;;;;5092451;28;20077;-69
2021/03/12 11:30:09;;;;;;;13.55;9.23;;;-0.80;99.90;;;;;;5092279;28;20028;-69
2021/03/12 11:32:36;;;;;;;18.13;9.50;;;-0.80;99.90;;;;;;5092199;28;20060;-69
2021/03/12 11:35:02;;;;;;;19.38;10.15;;;-0.70;99.90;;;;;;5092178;28;20032;-69
2021/03/12 11:37:28;;;;;;;16.60;10.13;;;-0.70;99.90;;;;;;5091915;28;20479;-69
2021/03/12 11:39:54;;;;;;;16.40;9.85;;;-0.70;99.90;;;;;;5092191;28;20032;-69
2021/03/12 11:42:19;;;;;;;16.05;9.75;;;-0.70;99.90;;;;;;5092246;28;20103;-69
2021/03/12 11:44:45;;;;;;;17.23;10.20;;;-0.70;99.90;;;;;;5092481;28;20024;-69
2021/03/12 11:47:11;;;;;;;15.13;9.75;;;-0.70;99.90;;;;;;5092082;28;20031;-68
2021/03/12 11:49:37;;;;;;;16.48;9.15;;;-0.80;99.90;;;;;;5091912;28;20047;-69
2021/03/12 11:52:05;;;;;;;17.20;9.85;;;-0.80;99.90;;;;;;5091862;28;20099;-70
2021/03/12 11:54:31;;;;;;;15.55;8.93;;;-0.80;99.90;;;;;;5091820;28;20024;-68
2021/03/12 11:56:56;;;;;;;14.50;9.35;;;-0.80;99.90;;;;;;5091375;28;20089;-85
2021/03/12 11:59:22;;;;;;;14.57;9.35;;;-0.80;99.90;;;;;;5073704;28;20020;-73
2021/03/12 12:01:48;;;;;;;17.17;10.07;;;-0.70;99.90;;;;;;5091628;28;20030;-74
2021/03/12 12:04:14;;;;;;;16.42;9.25;;;-0.70;99.90;;;;;;5092660;28;20484;-74
2021/03/12 12:06:39;;;;;;;15.05;9.52;;;-0.70;99.90;;;;;;5095693;28;20016;-74
2021/03/12 12:09:05;;;;;;;17.10;9.15;;;-0.70;99.90;;;;;;5095778;28;20406;-74
2021/03/12 12:11:31;;;;;;;17.75;10.45;;;-0.70;99.90;;;;;;5095930;28;20020;-75
2021/03/12 12:13:58;;;;;;;14.38;9.70;;;-0.70;99.90;;;;;;5103121;28;20035;-77
2021/03/12 12:16:23;;;;;;;16.63;9.50;;;-0.70;99.90;;;;;;5091979;28;20050;-78
2021/03/12 12:18:49;;;;;;;15.30;10.23;;;-0.70;99.90;;;;;;5094835;28;20028;-74
2021/03/12 12:21:15;;;;;;;12.48;8.95;;;-0.80;99.90;;;;;;5095994;28;20024;-74
2021/03/12 12:23:41;;;;;;;15.02;9.23;;;-0.80;99.90;;;;;;5095628;28;20024;-72
2021/03/12 12:26:06;;;;;;;17.58;10.35;;;-0.90;99.90;;;;;;5095947;28;20027;-72
2021/03/12 12:28:32;;;;;;;15.15;9.68;;;-1.00;99.90;;;;;;5095636;28;20051;-72
2021/03/12 12:30:58;;;;;;;15.43;8.63;;;-1.00;99.90;;;;;;5076521;28;20560;-73
2021/03/12 12:33:24;;;;;;;15.57;9.60;;;-1.00;99.90;;;;;;5094868;28;20030;-68
2021/03/12 12:35:51;;;;;;;15.85;9.27;;;-0.90;99.90;;;;;;5094702;28;20032;-72
2021/03/12 12:38:17;;;;;;;15.43;9.23;;;-0.90;99.90;;;;;;5094867;28;20467;-71
2021/03/12 12:40:42;;;;;;;18.10;10.55;;;-0.50;99.90;;;;;;5094997;28;20028;-71
2021/03/12 12:43:08;;;;;;;15.13;8.80;;;-0.40;99.90;;;;;;5094979;28;20107;-71
2021/03/12 12:45:34;;;;;;;16.08;10.20;;;-0.10;99.90;;;;;;5093862;28;20157;-71
2021/03/12 12:48:01;;;;;;;17.17;10.50;;;0.00;99.90;;;;;;5094399;28;20513;-71
2021/03/12 12:50:26;;;;;;;14.10;9.75;;;-0.20;99.90;;;;;;5095078;28;20032;-71
2021/03/12 12:52:52;;;;;;;17.17;9.70;;;-0.40;99.90;;;;;;5094938;28;20023;-71
2021/03/12 12:55:18;;;;;;;17.02;10.63;;;-0.40;99.90;;;;;;5094967;28;20144;-71
2021/03/12 12:57:44;;;;;;;16.25;10.23;;;-0.50;99.90;;;;;;5094674;28;20134;-71
2021/03/12 13:00:11;;;;;;;15.00;9.13;;;-0.60;99.90;;;;;;5094261;28;20068;-71
2021/03/12 13:02:37;;;;;;;17.83;9.90;;;-0.50;99.90;;;;;;5094775;28;20043;-71
2021/03/12 13:05:06;;;;;;;15.60;9.82;;;-0.60;99.90;;;;;;5094716;28;20495;-73
2021/03/12 13:07:32;;;;;;;17.48;9.23;;;-0.60;99.90;;;;;;5094016;28;20479;-74
2021/03/12 13:09:58;;;;;;;16.27;9.80;;;-0.60;99.90;;;;;;5094633;28;20039;-75
2021/03/12 13:12:23;;;;;;;16.67;10.35;;;-0.40;99.90;;;;;;5094380;28;20028;-73
2021/03/12 13:14:50;;;;;;;14.95;9.75;;;-0.30;99.90;;;;;;5092705;28;20725;-71
2021/03/12 13:17:18;;;;;;;15.05;9.75;;;-0.40;99.90;;;;;;5093510;28;20028;-70
2021/03/12 13:19:45;;;;;;;16.35;9.82;;;-0.50;99.90;;;;;;5092741;28;20020;-71
2021/03/12 13:22:11;;;;;;;15.40;9.23;;;-0.50;99.90;;;;;;5094440;28;20032;-71
2021/03/12 13:24:38;;;;;;;15.98;9.43;;;-0.60;99.90;;;;;;5095906;28;20047;-70
2021/03/12 13:27:05;;;;;;;17.10;9.82;;;-0.60;99.90;;;;;;5094355;28;20058;-71
2021/03/12 13:29:31;;;;;;;16.42;9.50;;;-0.70;99.90;;;;;;5094288;28;20055;-71
2021/03/12 13:31:56;;;;;;;14.38;9.35;;;-0.60;99.90;;;;;;5094364;28;20456;-70
2021/03/12 13:34:22;;;;;;;15.35;9.57;;;-0.60;99.90;;;;;;5094185;28;20023;-71
2021/03/12 13:36:48;;;;;;;15.95;9.85;;;-0.60;99.90;;;;;;5094477;28;20020;-71
2021/03/12 13:39:14;;;;;;;18.70;9.70;;;-0.60;99.90;;;;;;5094627;28;20032;-71
2021/03/12 13:41:39;;;;;;;16.33;9.98;;;-0.60;99.90;;;;;;5075859;28;20107;-71
2021/03/12 13:44:09;;;;;;;16.60;9.43;;;-0.50;99.90;;;;;;5094541;28;20024;-71
2021/03/12 13:46:35;;;;;;;16.15;10.15;;;-0.50;99.90;;;;;;5094575;28;20016;-71
2021/03/12 13:49:01;;;;;;;17.33;9.95;;;-0.50;99.90;;;;;;5093867;28;20097;-70
2021/03/12 13:51:27;;;;;;;16.00;9.85;;;-0.50;99.90;;;;;;5093527;28;20095;-70
2021/03/12 13:53:53;;;;;;;13.90;9.65;;;-0.50;99.90;;;;;;5093064;28;20111;-72
2021/03/12 13:56:19;;;;;;;23.48;9.85;;;-0.50;99.90;;;;;;5093494;28;20086;-72
2021/03/12 13:58:44;;;;;;;16.60;9.88;;;-0.50;99.90;;;;;;5093939;28;20020;-73
2021/03/12 14:01:10;;;;;;;15.02;9.77;;;-0.40;99.90;;;;;;5093898;28;20036;-73
2021/03/12 14:03:36;;;;;;;14.68;9.40;;;-0.50;99.90;;;;;;5093548;28;20102;-72
2021/03/12 14:06:01;;;;;;;17.38;9.40;;;-0.50;99.90;;;;;;5091697;28;20056;-69
2021/03/12 14:08:27;;;;;;;17.60;9.63;;;-0.50;99.90;;;;;;5092279;28;20066;-69
2021/03/12 14:10:53;;;;;;;17.00;10.10;;;-0.50;99.90;;;;;;5081901;28;20410;-70
2021/03/12 14:13:18;;;;;;;16.92;9.82;;;-0.50;99.90;;;;;;5088329;28;20024;-69
2021/03/12 14:15:44;;;;;;;19.58;10.93;;;-0.50;99.90;;;;;;5073430;28;20047;-69
2021/03/12 14:18:10;;;;;;;16.48;9.25;;;-0.60;99.90;;;;;;5092964;28;20024;-70
2021/03/12 14:20:36;;;;;;;16.10;10.02;;;-0.60;99.90;;;;;;5092614;28;20406;-69
2021/03/12 14:23:02;;;;;;;14.88;8.40;;;-0.60;99.90;;;;;;5092780;28;20432;-70
2021/03/12 14:25:28;;;;;;;22.02;10.88;;;-0.60;99.90;;;;;;5087749;28;20024;-69
2021/03/12 14:27:54;;;;;;;18.80;9.30;;;-0.60;99.90;;;;;;5075983;28;20024;-69
2021/03/12 14:30:20;;;;;;;16.58;10.40;;;-0.70;99.90;;;;;;5070907;28;20093;-69
2021/03/12 14:32:46;;;;;;;15.23;9.20;;;-0.70;99.90;;;;;;5087621;28;20020;-68
2021/03/12 14:35:12;;;;;;;15.98;9.77;;;-0.70;99.90;;;;;;5086294;28;20068;-68
2021/03/12 14:37:38;;;;;;;18.48;9.18;;;-0.70;99.90;;;;;;5092518;28;20025;-70
2021/03/12 14:40:06;;;;;;;15.38;9.57;;;-0.70;99.90;;;;;;5089389;28;20476;-70
2021/03/12 14:42:32;;;;;;;16.02;9.48;;;-0.70;99.90;;;;;;5083999;28;20099;-70
2021/03/12 14:44:58;;;;;;;15.63;9.80;;;-0.80;99.90;;;;;;5107632;28;20028;-69
2021/03/12 14:47:24;;;;;;;19.40;10.52;;;-0.80;99.90;;;;;;5074163;28;20028;-69
2021/03/12 14:49:49;;;;;;;15.90;10.25;;;-0.90;99.90;;;;;;5092243;28;20035;-69
2021/03/12 14:52:15;;;;;;;21.10;9.98;;;-0.90;99.90;;;;;;5092263;28;20034;-69
2021/03/12 14:54:41;;;;;;;18.42;10.43;;;-1.00;99.90;;;;;;5091897;28;20052;-69
2021/03/12 14:57:06;;;;;;;16.13;9.68;;;-1.10;99.90;;;;;;5092567;28;20106;-69
2021/03/12 14:59:33;;;;;;;17.35;10.18;;;-1.10;99.90;;;;;;5073875;28;20399;-69
2021/03/12 15:01:59;;;;;;;17.67;9.57;;;-1.00;99.90;;;;;;5091982;28;20111;-67
2021/03/12 15:04:24;;;;;;;19.17;10.07;;;-1.10;99.90;;;;;;5091659;28;20107;-68
2021/03/12 15:06:50;;;;;;;14.18;8.50;;;-1.10;99.90;;;;;;5090936;28;20100;-68
2021/03/12 15:09:16;;;;;;;19.40;9.48;;;-1.10;99.90;;;;;;5092087;28;20032;-68
2021/03/12 15:11:42;;;;;;;16.08;10.35;;;-1.10;99.90;;;;;;5091472;28;20095;-68
2021/03/12 15:14:08;;;;;;;15.23;9.32;;;-1.20;99.90;;;;;;5091761;28;20523;-68
2021/03/12 15:16:34;;;;;;;15.57;9.73;;;-1.20;99.90;;;;;;5091781;28;20071;-68
2021/03/12 15:18:59;;;;;;;14.15;9.07;;;-1.20;99.90;;;;;;5092130;28;20031;-69
2021/03/12 15:21:25;;;;;;;15.85;9.55;;;-1.20;99.90;;;;;;5092064;28;20089;-69
2021/03/12 15:23:51;;;;;;;18.65;9.57;;;-1.20;99.90;;;;;;5091724;28;20032;-69
2021/03/12 15:26:18;;;;;;;17.02;9.68;;;-1.20;99.90;;;;;;5073637;28;20107;-69
2021/03/12 15:28:44;;;;;;;14.40;9.15;;;-1.20;99.90;;;;;;5091434;28;20039;-69
2021/03/12 15:31:10;;;;;;;15.75;9.32;;;-1.20;99.90;;;;;;5092145;28;20016;-70
2021/03/12 15:33:35;;;;;;;19.15;10.13;;;-1.20;99.90;;;;;;5091771;28;20169;-70
2021/03/12 15:36:02;;;;;;;16.30;10.10;;;-1.20;99.90;;;;;;5092212;28;20064;-69
2021/03/12 15:38:29;;;;;;;18.65;10.43;;;-1.30;99.90;;;;;;5090820;28;20038;-69
2021/03/12 15:40:55;;;;;;;16.55;8.85;;;-1.30;99.90;;;;;;5091920;28;20021;-70
2021/03/12 15:43:20;;;;;;;16.65;9.85;;;-1.20;99.90;;;;;;5091793;28;20394;-70
2021/03/12 15:45:46;;;;;;;16.30;9.50;;;-1.30;99.90;;;;;;5091902;28;20028;-69
2021/03/12 15:48:12;;;;;;;17.83;9.23;;;-1.30;99.90;;;;;;5091899;28;20020;-70
2021/03/12 15:50:38;;;;;;;14.60;8.98;;;-1.30;99.90;;;;;;5091739;28;20052;-69
2021/03/12 15:53:04;;;;;;;17.38;10.55;;;-1.30;99.90;;;;;;5092243;28;20112;-73
2021/03/12 15:55:30;;;;;;;16.50;10.63;;;-1.30;99.90;;;;;;5092194;28;20030;-68
2021/03/12 15:57:55;;;;;;;16.67;8.52;;;-1.30;99.90;;;;;;5091632;28;20471;-71
2021/03/12 16:00:21;;;;;;;15.73;9.00;;;-1.10;99.90;;;;;;5091100;28;20029;-70
2021/03/12 16:02:47;;;;;;;15.73;9.38;;;-0.80;99.90;;;;;;5091567;28;20027;-70
2021/03/12 16:05:14;;;;;;;14.23;8.18;;;-0.70;99.90;;;;;;5091770;28;20019;-70
2021/03/12 16:07:40;;;;;;;14.18;9.48;;;-0.80;99.90;;;;;;5090479;28;20081;-70
2021/03/12 16:10:10;;;;;;;16.58;8.90;;;-1.00;99.90;;;;;;5090420;28;20036;-70
2021/03/12 16:12:37;;;;;;;12.32;8.40;;;-1.00;99.90;;;;;;5109675;28;20120;-70
2021/03/12 16:15:05;;;;;;;18.00;10.15;;;-1.10;99.90;;;;;;5092161;28;20134;-69
2021/03/12 16:17:31;;;;;;;14.95;9.65;;;-1.20;99.90;;;;;;5110402;28;20019;-69
2021/03/12 16:19:56;;;;;;;14.48;9.15;;;-1.20;99.90;;;;;;5105928;28;20031;-69
2021/03/12 16:22:23;;;;;;;13.00;8.52;;;-1.20;99.90;;;;;;5103767;28;20034;-69
2021/03/12 16:24:49;;;;;;;17.10;9.52;;;-1.20;99.90;;;;;;5110320;28;20572;-70
2021/03/12 16:27:15;;;;;;;13.35;8.50;;;-1.20;99.90;;;;;;5111427;28;20106;-72
2021/03/12 16:29:43;;;;;;;15.02;9.27;;;-0.50;99.90;;;;;;5110295;28;20038;-72
2021/03/12 16:32:13;;;;;;;15.23;9.45;;;-0.50;99.90;;;;;;5111627;28;20028;-71
2021/03/12 16:34:39;;;;;;;14.63;9.23;;;-0.70;99.90;;;;;;5111967;28;20486;-72
2021/03/12 16:37:06;;;;;;;14.68;8.93;;;-0.90;99.90;;;;;;5111935;28;20024;-71
2021/03/12 16:39:33;;;;;;;15.90;8.70;;;-1.00;99.90;;;;;;5112184;28;20024;-71
2021/03/12 16:41:59;;;;;;;14.73;8.82;;;-1.00;99.90;;;;;;5112250;28;20054;-72
2021/03/12 16:44:25;;;;;;;13.88;8.52;;;-1.00;99.90;;;;;;5112134;28;20024;-72
2021/03/12 16:46:51;;;;;;;13.73;9.02;;;-1.10;99.90;;;;;;5112162;28;20030;-75
2021/03/12 16:49:17;;;;;;;15.50;9.15;;;-1.00;99.90;;;;;;5111846;28;20075;-79
2021/03/12 16:51:44;;;;;;;12.93;8.27;;;-1.10;99.90;;;;;;5113632;28;20016;-77
2021/03/12 16:54:14;;;;;;;13.50;8.95;;;-1.20;99.90;;;;;;5115798;28;20024;-74